sensor_id;sensor_type;location;lat;lon;timestamp;P1;durP1;ratioP1;P2;durP2;ratioP2
37383;SDS011;23258;49.718;11.082;2023-12-04T00:00:36;9.47;;;7.57;;
37383;SDS011;23258;49.718;11.082;2023-12-04T00:03:06;12.07;;;8.27;;
37383;SDS011;23258;49.718;11.082;2023-12-04T00:05:38;9.73;;;7.30;;
37383;SDS011;23258;49.718;11.082;2023-12-04T00:08:11;11.63;;;6.83;;
37383;SDS011;23258;49.718;11.082;2023-12-04T00:10:41;8.70;;;6.83;;
37383;SDS011;23258;49.718;11.082;2023-12-04T00:13:10;10.20;;;7.50;;
37383;SDS011;23258;49.718;11.082;2023-12-04T00:15:40;12.23;;;8.00;;
37383;SDS011;23258;49.718;11.082;2023-12-04T00:18:10;10.90;;;7.70;;
37383;SDS011;23258;49.718;11.082;2023-12-04T00:20:42;11.70;;;7.17;;
37383;SDS011;23258;49.718;11.082;2023-12-04T00:23:12;10.47;;;7.63;;
37383;SDS011;23258;49.718;11.082;2023-12-04T00:25:42;10.13;;;7.97;;
37383;SDS011;23258;49.718;11.082;2023-12-04T00:28:11;17.27;;;8.50;;
37383;SDS011;23258;49.718;11.082;2023-12-04T00:30:41;10.30;;;7.57;;
37383;SDS011;23258;49.718;11.082;2023-12-04T00:33:11;10.87;;;8.67;;
37383;SDS011;23258;49.718;11.082;2023-12-04T00:35:43;9.93;;;8.10;;
37383;SDS011;23258;49.718;11.082;2023-12-04T00:38:13;10.97;;;8.27;;
37383;SDS011;23258;49.718;11.082;2023-12-04T00:40:43;9.73;;;7.53;;
37383;SDS011;23258;49.718;11.082;2023-12-04T00:43:12;11.00;;;7.87;;
37383;SDS011;23258;49.718;11.082;2023-12-04T00:45:42;11.60;;;7.53;;
37383;SDS011;23258;49.718;11.082;2023-12-04T00:48:12;7.37;;;6.53;;
37383;SDS011;23258;49.718;11.082;2023-12-04T00:50:44;9.57;;;7.23;;
37383;SDS011;23258;49.718;11.082;2023-12-04T00:53:14;10.17;;;7.93;;
37383;SDS011;23258;49.718;11.082;2023-12-04T00:55:44;12.37;;;8.10;;
37383;SDS011;23258;49.718;11.082;2023-12-04T00:58:13;9.40;;;7.13;;
37383;SDS011;23258;49.718;11.082;2023-12-04T01:00:43;9.37;;;6.90;;
37383;SDS011;23258;49.718;11.082;2023-12-04T01:03:15;9.63;;;7.73;;
37383;SDS011;23258;49.718;11.082;2023-12-04T01:05:48;8.60;;;7.80;;
37383;SDS011;23258;49.718;11.082;2023-12-04T01:08:18;10.13;;;7.60;;
37383;SDS011;23258;49.718;11.082;2023-12-04T01:10:49;10.63;;;7.73;;
37383;SDS011;23258;49.718;11.082;2023-12-04T01:13:18;9.60;;;7.00;;
37383;SDS011;23258;49.718;11.082;2023-12-04T01:15:48;12.13;;;7.60;;
37383;SDS011;23258;49.718;11.082;2023-12-04T01:18:18;11.17;;;7.37;;
37383;SDS011;23258;49.718;11.082;2023-12-04T01:20:50;9.23;;;7.30;;
37383;SDS011;23258;49.718;11.082;2023-12-04T01:23:20;7.40;;;6.63;;
37383;SDS011;23258;49.718;11.082;2023-12-04T01:25:50;8.23;;;6.93;;
37383;SDS011;23258;49.718;11.082;2023-12-04T01:28:20;8.50;;;7.10;;
37383;SDS011;23258;49.718;11.082;2023-12-04T01:30:49;11.17;;;7.93;;
37383;SDS011;23258;49.718;11.082;2023-12-04T01:33:19;10.17;;;7.33;;
37383;SDS011;23258;49.718;11.082;2023-12-04T01:35:51;9.83;;;7.43;;
37383;SDS011;23258;49.718;11.082;2023-12-04T01:38:21;9.80;;;7.30;;
37383;SDS011;23258;49.718;11.082;2023-12-04T01:40:51;11.63;;;8.50;;
37383;SDS011;23258;49.718;11.082;2023-12-04T01:43:20;10.43;;;7.43;;
37383;SDS011;23258;49.718;11.082;2023-12-04T01:45:50;11.10;;;8.27;;
37383;SDS011;23258;49.718;11.082;2023-12-04T01:48:21;8.20;;;7.17;;
37383;SDS011;23258;49.718;11.082;2023-12-04T01:50:54;9.07;;;7.10;;
37383;SDS011;23258;49.718;11.082;2023-12-04T01:53:24;10.60;;;7.60;;
37383;SDS011;23258;49.718;11.082;2023-12-04T01:55:54;9.10;;;6.93;;
37383;SDS011;23258;49.718;11.082;2023-12-04T01:58:24;8.80;;;7.03;;
37383;SDS011;23258;49.718;11.082;2023-12-04T02:00:53;9.70;;;6.83;;
37383;SDS011;23258;49.718;11.082;2023-12-04T02:03:23;9.97;;;7.97;;
37383;SDS011;23258;49.718;11.082;2023-12-04T02:05:56;10.17;;;7.17;;
37383;SDS011;23258;49.718;11.082;2023-12-04T02:08:27;11.20;;;8.03;;
37383;SDS011;23258;49.718;11.082;2023-12-04T02:10:57;9.10;;;7.57;;
37383;SDS011;23258;49.718;11.082;2023-12-04T02:13:26;11.43;;;8.13;;
37383;SDS011;23258;49.718;11.082;2023-12-04T02:15:56;9.80;;;7.27;;
37383;SDS011;23258;49.718;11.082;2023-12-04T02:18:28;8.77;;;7.27;;
37383;SDS011;23258;49.718;11.082;2023-12-04T02:20:57;8.23;;;7.43;;
37383;SDS011;23258;49.718;11.082;2023-12-04T02:23:29;9.53;;;7.20;;
37383;SDS011;23258;49.718;11.082;2023-12-04T02:26:03;9.03;;;7.83;;
37383;SDS011;23258;49.718;11.082;2023-12-04T02:28:35;8.23;;;6.97;;
37383;SDS011;23258;49.718;11.082;2023-12-04T02:31:05;10.50;;;7.87;;
37383;SDS011;23258;49.718;11.082;2023-12-04T02:33:36;8.73;;;7.83;;
37383;SDS011;23258;49.718;11.082;2023-12-04T02:36:07;9.40;;;7.47;;
37383;SDS011;23258;49.718;11.082;2023-12-04T02:38:38;9.60;;;6.53;;
37383;SDS011;23258;49.718;11.082;2023-12-04T02:41:10;7.70;;;6.77;;
37383;SDS011;23258;49.718;11.082;2023-12-04T02:43:40;9.37;;;7.00;;
37383;SDS011;23258;49.718;11.082;2023-12-04T02:46:10;8.77;;;7.67;;
37383;SDS011;23258;49.718;11.082;2023-12-04T02:48:39;10.00;;;7.30;;
37383;SDS011;23258;49.718;11.082;2023-12-04T02:51:10;8.63;;;6.87;;
37383;SDS011;23258;49.718;11.082;2023-12-04T02:53:40;8.43;;;7.07;;
37383;SDS011;23258;49.718;11.082;2023-12-04T02:56:12;10.27;;;7.67;;
37383;SDS011;23258;49.718;11.082;2023-12-04T02:58:42;9.83;;;6.87;;
37383;SDS011;23258;49.718;11.082;2023-12-04T03:01:12;8.70;;;7.80;;
37383;SDS011;23258;49.718;11.082;2023-12-04T03:03:41;10.37;;;7.53;;
37383;SDS011;23258;49.718;11.082;2023-12-04T03:06:11;11.50;;;8.43;;
37383;SDS011;23258;49.718;11.082;2023-12-04T03:08:42;11.47;;;8.83;;
37383;SDS011;23258;49.718;11.082;2023-12-04T03:11:15;13.10;;;9.43;;
37383;SDS011;23258;49.718;11.082;2023-12-04T03:13:45;12.30;;;8.27;;
37383;SDS011;23258;49.718;11.082;2023-12-04T03:16:15;13.17;;;8.33;;
37383;SDS011;23258;49.718;11.082;2023-12-04T03:18:45;11.27;;;8.67;;
37383;SDS011;23258;49.718;11.082;2023-12-04T03:21:15;10.87;;;8.40;;
37383;SDS011;23258;49.718;11.082;2023-12-04T03:23:44;12.10;;;9.13;;
37383;SDS011;23258;49.718;11.082;2023-12-04T03:26:17;12.07;;;9.03;;
37383;SDS011;23258;49.718;11.082;2023-12-04T03:28:47;11.90;;;9.07;;
37383;SDS011;23258;49.718;11.082;2023-12-04T03:31:16;11.90;;;8.33;;
37383;SDS011;23258;49.718;11.082;2023-12-04T03:33:46;11.27;;;9.00;;
37383;SDS011;23258;49.718;11.082;2023-12-04T03:36:16;10.73;;;8.23;;
37383;SDS011;23258;49.718;11.082;2023-12-04T03:38:45;11.27;;;8.87;;
37383;SDS011;23258;49.718;11.082;2023-12-04T03:41:18;9.37;;;7.83;;
37383;SDS011;23258;49.718;11.082;2023-12-04T03:43:49;11.23;;;8.37;;
37383;SDS011;23258;49.718;11.082;2023-12-04T03:46:18;11.57;;;8.10;;
37383;SDS011;23258;49.718;11.082;2023-12-04T03:48:48;12.27;;;8.77;;
37383;SDS011;23258;49.718;11.082;2023-12-04T03:51:18;10.10;;;8.33;;
37383;SDS011;23258;49.718;11.082;2023-12-04T03:53:47;11.43;;;9.07;;
37383;SDS011;23258;49.718;11.082;2023-12-04T03:56:19;13.17;;;8.60;;
37383;SDS011;23258;49.718;11.082;2023-12-04T03:58:49;10.50;;;8.47;;
37383;SDS011;23258;49.718;11.082;2023-12-04T04:01:19;11.57;;;9.07;;
37383;SDS011;23258;49.718;11.082;2023-12-04T04:03:48;13.10;;;9.03;;
37383;SDS011;23258;49.718;11.082;2023-12-04T04:06:18;9.90;;;8.47;;
37383;SDS011;23258;49.718;11.082;2023-12-04T04:08:48;11.43;;;8.83;;
37383;SDS011;23258;49.718;11.082;2023-12-04T04:11:21;13.13;;;8.53;;
37383;SDS011;23258;49.718;11.082;2023-12-04T04:13:51;11.47;;;8.70;;
37383;SDS011;23258;49.718;11.082;2023-12-04T04:16:21;13.43;;;8.83;;
37383;SDS011;23258;49.718;11.082;2023-12-04T04:18:51;9.13;;;8.10;;
37383;SDS011;23258;49.718;11.082;2023-12-04T04:21:20;11.13;;;8.77;;
37383;SDS011;23258;49.718;11.082;2023-12-04T04:23:51;12.37;;;8.53;;
37383;SDS011;23258;49.718;11.082;2023-12-04T04:26:23;12.33;;;9.33;;
37383;SDS011;23258;49.718;11.082;2023-12-04T04:28:53;11.23;;;8.57;;
37383;SDS011;23258;49.718;11.082;2023-12-04T04:31:22;11.67;;;8.63;;
37383;SDS011;23258;49.718;11.082;2023-12-04T04:33:52;10.27;;;8.40;;
37383;SDS011;23258;49.718;11.082;2023-12-04T04:36:22;10.40;;;8.07;;
37383;SDS011;23258;49.718;11.082;2023-12-04T04:38:51;10.00;;;7.80;;
37383;SDS011;23258;49.718;11.082;2023-12-04T04:41:24;11.67;;;8.47;;
37383;SDS011;23258;49.718;11.082;2023-12-04T04:43:53;9.63;;;8.00;;
37383;SDS011;23258;49.718;11.082;2023-12-04T04:46:23;13.13;;;9.47;;
37383;SDS011;23258;49.718;11.082;2023-12-04T04:48:54;10.73;;;8.57;;
37383;SDS011;23258;49.718;11.082;2023-12-04T04:51:24;9.70;;;8.73;;
37383;SDS011;23258;49.718;11.082;2023-12-04T04:53:53;12.87;;;8.40;;
37383;SDS011;23258;49.718;11.082;2023-12-04T04:56:26;11.10;;;8.13;;
37383;SDS011;23258;49.718;11.082;2023-12-04T04:58:56;10.20;;;8.83;;
37383;SDS011;23258;49.718;11.082;2023-12-04T05:01:26;13.80;;;8.70;;
37383;SDS011;23258;49.718;11.082;2023-12-04T05:03:56;12.90;;;9.27;;
37383;SDS011;23258;49.718;11.082;2023-12-04T05:06:26;11.43;;;8.70;;
37383;SDS011;23258;49.718;11.082;2023-12-04T05:08:56;11.33;;;8.50;;
37383;SDS011;23258;49.718;11.082;2023-12-04T05:11:28;11.20;;;8.37;;
37383;SDS011;23258;49.718;11.082;2023-12-04T05:13:58;11.57;;;8.70;;
37383;SDS011;23258;49.718;11.082;2023-12-04T05:16:27;11.53;;;8.10;;
37383;SDS011;23258;49.718;11.082;2023-12-04T05:18:57;12.33;;;8.67;;
37383;SDS011;23258;49.718;11.082;2023-12-04T05:21:27;12.20;;;8.83;;
37383;SDS011;23258;49.718;11.082;2023-12-04T05:23:57;9.73;;;7.47;;
37383;SDS011;23258;49.718;11.082;2023-12-04T05:26:29;11.93;;;8.53;;
37383;SDS011;23258;49.718;11.082;2023-12-04T05:28:58;9.30;;;8.20;;
37383;SDS011;23258;49.718;11.082;2023-12-04T05:31:28;9.97;;;7.30;;
37383;SDS011;23258;49.718;11.082;2023-12-04T05:33:58;11.87;;;8.73;;
37383;SDS011;23258;49.718;11.082;2023-12-04T05:36:27;14.13;;;9.47;;
37383;SDS011;23258;49.718;11.082;2023-12-04T05:38:57;9.17;;;7.93;;
37383;SDS011;23258;49.718;11.082;2023-12-04T05:41:30;9.20;;;8.17;;
37383;SDS011;23258;49.718;11.082;2023-12-04T05:43:59;10.40;;;7.60;;
37383;SDS011;23258;49.718;11.082;2023-12-04T05:46:29;10.23;;;8.63;;
37383;SDS011;23258;49.718;11.082;2023-12-04T05:48:59;11.87;;;9.93;;
37383;SDS011;23258;49.718;11.082;2023-12-04T05:51:28;11.07;;;10.00;;
37383;SDS011;23258;49.718;11.082;2023-12-04T05:54:01;18.17;;;8.67;;
37383;SDS011;23258;49.718;11.082;2023-12-04T05:56:33;9.80;;;8.57;;
37383;SDS011;23258;49.718;11.082;2023-12-04T05:59:03;9.77;;;8.73;;
37383;SDS011;23258;49.718;11.082;2023-12-04T06:01:32;10.10;;;8.70;;
37383;SDS011;23258;49.718;11.082;2023-12-04T06:04:02;9.70;;;7.97;;
37383;SDS011;23258;49.718;11.082;2023-12-04T06:06:32;12.33;;;8.13;;
37383;SDS011;23258;49.718;11.082;2023-12-04T06:09:02;10.10;;;8.10;;
37383;SDS011;23258;49.718;11.082;2023-12-04T06:11:34;8.70;;;7.80;;
37383;SDS011;23258;49.718;11.082;2023-12-04T06:14:04;12.17;;;8.17;;
37383;SDS011;23258;49.718;11.082;2023-12-04T06:16:34;9.17;;;7.80;;
37383;SDS011;23258;49.718;11.082;2023-12-04T06:19:03;10.40;;;8.03;;
37383;SDS011;23258;49.718;11.082;2023-12-04T06:21:33;10.10;;;7.97;;
37383;SDS011;23258;49.718;11.082;2023-12-04T06:24:03;8.40;;;7.53;;
37383;SDS011;23258;49.718;11.082;2023-12-04T06:26:38;10.00;;;7.80;;
37383;SDS011;23258;49.718;11.082;2023-12-04T06:29:08;10.00;;;7.70;;
37383;SDS011;23258;49.718;11.082;2023-12-04T06:31:38;11.03;;;7.23;;
37383;SDS011;23258;49.718;11.082;2023-12-04T06:34:08;10.13;;;7.70;;
37383;SDS011;23258;49.718;11.082;2023-12-04T06:36:39;8.77;;;7.00;;
37383;SDS011;23258;49.718;11.082;2023-12-04T06:39:09;10.57;;;7.67;;
37383;SDS011;23258;49.718;11.082;2023-12-04T06:41:42;10.67;;;7.67;;
37383;SDS011;23258;49.718;11.082;2023-12-04T06:44:13;8.43;;;7.53;;
37383;SDS011;23258;49.718;11.082;2023-12-04T06:46:44;9.53;;;8.43;;
37383;SDS011;23258;49.718;11.082;2023-12-04T06:49:16;11.57;;;8.10;;
37383;SDS011;23258;49.718;11.082;2023-12-04T06:51:47;12.57;;;8.43;;
37383;SDS011;23258;49.718;11.082;2023-12-04T06:54:16;8.90;;;7.33;;
37383;SDS011;23258;49.718;11.082;2023-12-04T06:56:49;11.20;;;7.43;;
37383;SDS011;23258;49.718;11.082;2023-12-04T06:59:18;11.53;;;7.63;;
37383;SDS011;23258;49.718;11.082;2023-12-04T07:01:48;8.70;;;7.53;;
37383;SDS011;23258;49.718;11.082;2023-12-04T07:04:18;11.73;;;7.83;;
37383;SDS011;23258;49.718;11.082;2023-12-04T07:06:49;9.57;;;6.67;;
37383;SDS011;23258;49.718;11.082;2023-12-04T07:09:18;11.30;;;7.50;;
37383;SDS011;23258;49.718;11.082;2023-12-04T07:11:51;8.57;;;6.57;;
37383;SDS011;23258;49.718;11.082;2023-12-04T07:14:21;8.43;;;6.73;;
37383;SDS011;23258;49.718;11.082;2023-12-04T07:16:51;7.77;;;6.93;;
37383;SDS011;23258;49.718;11.082;2023-12-04T07:19:21;9.93;;;6.90;;
37383;SDS011;23258;49.718;11.082;2023-12-04T07:21:50;8.40;;;6.80;;
37383;SDS011;23258;49.718;11.082;2023-12-04T07:24:20;8.27;;;7.40;;
37383;SDS011;23258;49.718;11.082;2023-12-04T07:26:53;8.60;;;7.10;;
37383;SDS011;23258;49.718;11.082;2023-12-04T07:29:22;8.73;;;6.67;;
37383;SDS011;23258;49.718;11.082;2023-12-04T07:31:52;9.73;;;7.13;;
37383;SDS011;23258;49.718;11.082;2023-12-04T07:34:22;8.70;;;6.60;;
37383;SDS011;23258;49.718;11.082;2023-12-04T07:36:52;9.10;;;7.37;;
37383;SDS011;23258;49.718;11.082;2023-12-04T07:39:21;11.43;;;7.73;;
37383;SDS011;23258;49.718;11.082;2023-12-04T07:41:53;9.00;;;8.00;;
37383;SDS011;23258;49.718;11.082;2023-12-04T07:44:38;10.83;;;7.73;;
37383;SDS011;23258;49.718;11.082;2023-12-04T07:47:08;9.80;;;6.80;;
37383;SDS011;23258;49.718;11.082;2023-12-04T07:49:38;10.57;;;7.93;;
37383;SDS011;23258;49.718;11.082;2023-12-04T07:52:08;9.73;;;6.60;;
37383;SDS011;23258;49.718;11.082;2023-12-04T07:54:38;6.27;;;5.67;;
37383;SDS011;23258;49.718;11.082;2023-12-04T07:57:11;8.00;;;6.03;;
37383;SDS011;23258;49.718;11.082;2023-12-04T07:59:41;6.70;;;6.07;;
37383;SDS011;23258;49.718;11.082;2023-12-04T08:02:13;7.63;;;6.53;;
37383;SDS011;23258;49.718;11.082;2023-12-04T08:04:43;9.17;;;7.27;;
37383;SDS011;23258;49.718;11.082;2023-12-04T08:07:13;7.87;;;7.00;;
37383;SDS011;23258;49.718;11.082;2023-12-04T08:09:42;9.30;;;7.00;;
37383;SDS011;23258;49.718;11.082;2023-12-04T08:12:15;7.80;;;6.50;;
37383;SDS011;23258;49.718;11.082;2023-12-04T08:14:45;13.33;;;8.60;;
37383;SDS011;23258;49.718;11.082;2023-12-04T08:17:15;12.67;;;10.37;;
37383;SDS011;23258;49.718;11.082;2023-12-04T08:19:44;11.53;;;9.87;;
37383;SDS011;23258;49.718;11.082;2023-12-04T08:22:18;10.80;;;8.33;;
37383;SDS011;23258;49.718;11.082;2023-12-04T08:24:48;7.87;;;6.47;;
37383;SDS011;23258;49.718;11.082;2023-12-04T08:27:20;8.03;;;7.17;;
37383;SDS011;23258;49.718;11.082;2023-12-04T08:29:50;10.40;;;7.43;;
37383;SDS011;23258;49.718;11.082;2023-12-04T08:32:20;9.13;;;7.30;;
37383;SDS011;23258;49.718;11.082;2023-12-04T08:34:51;8.77;;;7.17;;
37383;SDS011;23258;49.718;11.082;2023-12-04T08:37:20;7.47;;;6.67;;
37383;SDS011;23258;49.718;11.082;2023-12-04T08:39:50;7.73;;;6.17;;
37383;SDS011;23258;49.718;11.082;2023-12-04T08:42:26;6.03;;;5.43;;
37383;SDS011;23258;49.718;11.082;2023-12-04T08:44:56;7.83;;;7.03;;
37383;SDS011;23258;49.718;11.082;2023-12-04T08:47:26;8.80;;;7.43;;
37383;SDS011;23258;49.718;11.082;2023-12-04T08:49:55;8.17;;;7.13;;
37383;SDS011;23258;49.718;11.082;2023-12-04T08:52:26;9.23;;;8.30;;
37383;SDS011;23258;49.718;11.082;2023-12-04T08:54:56;11.80;;;8.23;;
37383;SDS011;23258;49.718;11.082;2023-12-04T08:57:28;9.53;;;7.63;;
37383;SDS011;23258;49.718;11.082;2023-12-04T08:59:58;8.13;;;7.10;;
37383;SDS011;23258;49.718;11.082;2023-12-04T09:02:30;7.30;;;6.53;;
37383;SDS011;23258;49.718;11.082;2023-12-04T09:05:03;5.83;;;5.13;;
37383;SDS011;23258;49.718;11.082;2023-12-04T09:07:32;6.37;;;5.30;;
37383;SDS011;23258;49.718;11.082;2023-12-04T09:10:07;6.13;;;5.53;;
37383;SDS011;23258;49.718;11.082;2023-12-04T09:12:54;8.30;;;7.40;;
37383;SDS011;23258;49.718;11.082;2023-12-04T09:15:23;9.93;;;7.27;;
37383;SDS011;23258;49.718;11.082;2023-12-04T09:17:53;9.10;;;7.57;;
37383;SDS011;23258;49.718;11.082;2023-12-04T09:20:23;8.20;;;6.90;;
37383;SDS011;23258;49.718;11.082;2023-12-04T09:22:52;11.10;;;8.63;;
37383;SDS011;23258;49.718;11.082;2023-12-04T09:25:34;8.93;;;7.33;;
37383;SDS011;23258;49.718;11.082;2023-12-04T09:28:06;7.77;;;6.93;;
37383;SDS011;23258;49.718;11.082;2023-12-04T09:30:36;8.47;;;6.97;;
37383;SDS011;23258;49.718;11.082;2023-12-04T09:33:06;8.47;;;7.07;;
37383;SDS011;23258;49.718;11.082;2023-12-04T09:35:36;9.80;;;7.40;;
37383;SDS011;23258;49.718;11.082;2023-12-04T09:38:06;6.93;;;6.20;;
37383;SDS011;23258;49.718;11.082;2023-12-04T09:40:35;7.97;;;6.40;;
37383;SDS011;23258;49.718;11.082;2023-12-04T09:43:08;9.40;;;7.57;;
37383;SDS011;23258;49.718;11.082;2023-12-04T09:45:38;8.83;;;6.97;;
37383;SDS011;23258;49.718;11.082;2023-12-04T09:48:08;8.53;;;6.77;;
37383;SDS011;23258;49.718;11.082;2023-12-04T09:50:38;6.73;;;5.87;;
37383;SDS011;23258;49.718;11.082;2023-12-04T09:53:10;6.83;;;6.13;;
37383;SDS011;23258;49.718;11.082;2023-12-04T09:55:40;6.57;;;5.53;;
37383;SDS011;23258;49.718;11.082;2023-12-04T09:58:13;7.03;;;6.37;;
37383;SDS011;23258;49.718;11.082;2023-12-04T10:00:43;7.57;;;5.83;;
37383;SDS011;23258;49.718;11.082;2023-12-04T10:03:13;6.83;;;5.27;;
37383;SDS011;23258;49.718;11.082;2023-12-04T10:05:44;6.00;;;5.37;;
37383;SDS011;23258;49.718;11.082;2023-12-04T10:08:14;7.03;;;5.43;;
37383;SDS011;23258;49.718;11.082;2023-12-04T10:10:44;5.70;;;5.20;;
37383;SDS011;23258;49.718;11.082;2023-12-04T10:13:17;5.73;;;5.13;;
37383;SDS011;23258;49.718;11.082;2023-12-04T10:16:07;6.40;;;5.07;;
37383;SDS011;23258;49.718;11.082;2023-12-04T10:18:37;5.50;;;4.93;;
37383;SDS011;23258;49.718;11.082;2023-12-04T10:21:07;5.80;;;4.50;;
37383;SDS011;23258;49.718;11.082;2023-12-04T10:23:45;6.03;;;4.80;;
37383;SDS011;23258;49.718;11.082;2023-12-04T10:26:15;6.23;;;4.67;;
37383;SDS011;23258;49.718;11.082;2023-12-04T10:31:34;5.03;;;4.40;;
37383;SDS011;23258;49.718;11.082;2023-12-04T10:34:04;5.47;;;4.40;;
37383;SDS011;23258;49.718;11.082;2023-12-04T10:36:37;4.40;;;4.00;;
37383;SDS011;23258;49.718;11.082;2023-12-04T10:39:07;5.90;;;4.97;;
37383;SDS011;23258;49.718;11.082;2023-12-04T10:41:40;5.13;;;4.57;;
37383;SDS011;23258;49.718;11.082;2023-12-04T10:44:09;5.00;;;4.27;;
37383;SDS011;23258;49.718;11.082;2023-12-04T10:46:42;4.50;;;4.10;;
37383;SDS011;23258;49.718;11.082;2023-12-04T10:49:12;5.37;;;4.27;;
37383;SDS011;23258;49.718;11.082;2023-12-04T10:51:48;5.87;;;4.63;;
37383;SDS011;23258;49.718;11.082;2023-12-04T10:54:18;5.00;;;4.53;;
37383;SDS011;23258;49.718;11.082;2023-12-04T10:56:48;4.43;;;3.70;;
37383;SDS011;23258;49.718;11.082;2023-12-04T10:59:21;4.03;;;3.70;;
37383;SDS011;23258;49.718;11.082;2023-12-04T11:01:56;5.23;;;4.40;;
37383;SDS011;23258;49.718;11.082;2023-12-04T11:04:26;4.00;;;3.60;;
37383;SDS011;23258;49.718;11.082;2023-12-04T11:06:57;5.60;;;4.47;;
37383;SDS011;23258;49.718;11.082;2023-12-04T11:09:31;4.90;;;4.20;;
37383;SDS011;23258;49.718;11.082;2023-12-04T11:12:05;4.60;;;4.20;;
37383;SDS011;23258;49.718;11.082;2023-12-04T11:14:39;4.53;;;3.53;;
37383;SDS011;23258;49.718;11.082;2023-12-04T11:17:14;4.13;;;3.73;;
37383;SDS011;23258;49.718;11.082;2023-12-04T11:19:48;3.70;;;3.33;;
37383;SDS011;23258;49.718;11.082;2023-12-04T11:22:19;4.80;;;3.60;;
37383;SDS011;23258;49.718;11.082;2023-12-04T11:24:51;3.67;;;3.37;;
37383;SDS011;23258;49.718;11.082;2023-12-04T11:27:22;3.90;;;3.57;;
37383;SDS011;23258;49.718;11.082;2023-12-04T11:29:52;4.43;;;3.87;;
37383;SDS011;23258;49.718;11.082;2023-12-04T11:32:27;5.97;;;3.77;;
37383;SDS011;23258;49.718;11.082;2023-12-04T11:34:59;3.93;;;3.63;;
37383;SDS011;23258;49.718;11.082;2023-12-04T11:37:29;3.80;;;3.50;;
37383;SDS011;23258;49.718;11.082;2023-12-04T11:40:01;3.80;;;3.30;;
37383;SDS011;23258;49.718;11.082;2023-12-04T11:42:32;3.83;;;3.33;;
37383;SDS011;23258;49.718;11.082;2023-12-04T11:45:02;4.07;;;3.40;;
37383;SDS011;23258;49.718;11.082;2023-12-04T11:47:43;3.40;;;3.10;;
37383;SDS011;23258;49.718;11.082;2023-12-04T11:50:19;4.43;;;3.80;;
37383;SDS011;23258;49.718;11.082;2023-12-04T11:52:49;4.23;;;3.83;;
37383;SDS011;23258;49.718;11.082;2023-12-04T11:55:20;4.07;;;3.67;;
37383;SDS011;23258;49.718;11.082;2023-12-04T11:57:50;3.90;;;3.43;;
37383;SDS011;23258;49.718;11.082;2023-12-04T12:00:21;4.00;;;3.67;;
37383;SDS011;23258;49.718;11.082;2023-12-04T12:03:05;4.77;;;4.10;;
37383;SDS011;23258;49.718;11.082;2023-12-04T12:05:48;4.50;;;3.87;;
37383;SDS011;23258;49.718;11.082;2023-12-04T12:08:20;3.77;;;3.40;;
37383;SDS011;23258;49.718;11.082;2023-12-04T12:10:52;3.20;;;3.00;;
37383;SDS011;23258;49.718;11.082;2023-12-04T12:13:22;4.00;;;3.27;;
37383;SDS011;23258;49.718;11.082;2023-12-04T12:15:53;3.07;;;2.80;;
37383;SDS011;23258;49.718;11.082;2023-12-04T12:18:28;5.53;;;3.80;;
37383;SDS011;23258;49.718;11.082;2023-12-04T12:20:58;5.33;;;3.63;;
37383;SDS011;23258;49.718;11.082;2023-12-04T12:23:27;5.17;;;3.77;;
37383;SDS011;23258;49.718;11.082;2023-12-04T12:25:58;3.73;;;3.33;;
37383;SDS011;23258;49.718;11.082;2023-12-04T12:28:28;4.30;;;3.90;;
37383;SDS011;23258;49.718;11.082;2023-12-04T12:31:01;4.50;;;3.73;;
37383;SDS011;23258;49.718;11.082;2023-12-04T12:33:34;3.50;;;3.20;;
37383;SDS011;23258;49.718;11.082;2023-12-04T12:36:04;4.60;;;4.10;;
37383;SDS011;23258;49.718;11.082;2023-12-04T12:38:34;4.57;;;4.00;;
37383;SDS011;23258;49.718;11.082;2023-12-04T12:41:05;4.13;;;3.23;;
37383;SDS011;23258;49.718;11.082;2023-12-04T12:43:37;5.77;;;3.97;;
37383;SDS011;23258;49.718;11.082;2023-12-04T12:46:07;3.80;;;3.50;;
37383;SDS011;23258;49.718;11.082;2023-12-04T12:48:39;4.93;;;3.83;;
37383;SDS011;23258;49.718;11.082;2023-12-04T12:51:12;3.43;;;3.10;;
37383;SDS011;23258;49.718;11.082;2023-12-04T12:53:43;3.50;;;3.20;;
37383;SDS011;23258;49.718;11.082;2023-12-04T12:56:18;4.67;;;3.93;;
37383;SDS011;23258;49.718;11.082;2023-12-04T12:58:48;4.07;;;3.77;;
37383;SDS011;23258;49.718;11.082;2023-12-04T13:01:18;4.60;;;4.20;;
37383;SDS011;23258;49.718;11.082;2023-12-04T13:03:51;4.63;;;3.83;;
37383;SDS011;23258;49.718;11.082;2023-12-04T13:06:21;4.07;;;3.77;;
37383;SDS011;23258;49.718;11.082;2023-12-04T13:08:52;4.87;;;4.47;;
37383;SDS011;23258;49.718;11.082;2023-12-04T13:11:22;5.57;;;4.20;;
37383;SDS011;23258;49.718;11.082;2023-12-04T13:13:52;3.97;;;3.67;;
37383;SDS011;23258;49.718;11.082;2023-12-04T13:16:24;3.90;;;3.60;;
37383;SDS011;23258;49.718;11.082;2023-12-04T13:18:56;3.77;;;3.40;;
37383;SDS011;23258;49.718;11.082;2023-12-04T13:21:26;3.70;;;3.27;;
37383;SDS011;23258;49.718;11.082;2023-12-04T13:23:57;4.70;;;3.73;;
37383;SDS011;23258;49.718;11.082;2023-12-04T13:26:27;4.63;;;4.03;;
37383;SDS011;23258;49.718;11.082;2023-12-04T13:28:57;4.23;;;3.70;;
37383;SDS011;23258;49.718;11.082;2023-12-04T13:31:28;4.47;;;4.07;;
37383;SDS011;23258;49.718;11.082;2023-12-04T13:34:02;9.03;;;3.70;;
37383;SDS011;23258;49.718;11.082;2023-12-04T13:36:33;4.57;;;4.07;;
37383;SDS011;23258;49.718;11.082;2023-12-04T13:39:03;3.97;;;3.60;;
37383;SDS011;23258;49.718;11.082;2023-12-04T13:41:43;4.10;;;3.70;;
37383;SDS011;23258;49.718;11.082;2023-12-04T13:44:26;4.93;;;4.30;;
37383;SDS011;23258;49.718;11.082;2023-12-04T13:46:56;4.53;;;3.43;;
37383;SDS011;23258;49.718;11.082;2023-12-04T13:49:28;3.50;;;3.20;;
37383;SDS011;23258;49.718;11.082;2023-12-04T13:51:59;5.07;;;3.77;;
37383;SDS011;23258;49.718;11.082;2023-12-04T13:54:34;5.17;;;4.13;;
37383;SDS011;23258;49.718;11.082;2023-12-04T13:57:11;5.00;;;3.80;;
37383;SDS011;23258;49.718;11.082;2023-12-04T13:59:45;4.77;;;4.10;;
37383;SDS011;23258;49.718;11.082;2023-12-04T14:02:15;6.47;;;4.07;;
37383;SDS011;23258;49.718;11.082;2023-12-04T14:04:48;5.03;;;4.47;;
37383;SDS011;23258;49.718;11.082;2023-12-04T14:07:18;3.83;;;3.50;;
37383;SDS011;23258;49.718;11.082;2023-12-04T14:09:49;4.83;;;3.70;;
37383;SDS011;23258;49.718;11.082;2023-12-04T14:12:19;6.07;;;4.43;;
37383;SDS011;23258;49.718;11.082;2023-12-04T14:14:48;5.47;;;4.30;;
37383;SDS011;23258;49.718;11.082;2023-12-04T14:17:27;4.37;;;3.97;;
37383;SDS011;23258;49.718;11.082;2023-12-04T14:19:59;5.23;;;3.90;;
37383;SDS011;23258;49.718;11.082;2023-12-04T14:22:39;6.10;;;5.50;;
37383;SDS011;23258;49.718;11.082;2023-12-04T14:25:09;5.07;;;4.47;;
37383;SDS011;23258;49.718;11.082;2023-12-04T14:27:39;6.63;;;5.47;;
37383;SDS011;23258;49.718;11.082;2023-12-04T14:30:12;7.20;;;4.93;;
37383;SDS011;23258;49.718;11.082;2023-12-04T14:32:41;4.83;;;4.27;;
37383;SDS011;23258;49.718;11.082;2023-12-04T14:35:17;6.60;;;5.00;;
37383;SDS011;23258;49.718;11.082;2023-12-04T14:37:47;5.80;;;4.30;;
37383;SDS011;23258;49.718;11.082;2023-12-04T14:40:17;6.23;;;3.90;;
37383;SDS011;23258;49.718;11.082;2023-12-04T14:42:47;4.90;;;4.30;;
37383;SDS011;23258;49.718;11.082;2023-12-04T14:45:17;5.40;;;4.00;;
37383;SDS011;23258;49.718;11.082;2023-12-04T14:47:51;9.77;;;7.67;;
37383;SDS011;23258;49.718;11.082;2023-12-04T14:50:26;41.57;;;19.67;;
37383;SDS011;23258;49.718;11.082;2023-12-04T14:52:56;29.63;;;18.05;;
37383;SDS011;23258;49.718;11.082;2023-12-04T14:55:38;8.23;;;6.17;;